Time;durP1;ratioP1;P1;durP2;ratioP2;P2;SDS_P1;SDS_P2;PMS_P1;PMS_P2;Temp;Humidity;BMP_temperature;BMP_pressure;BME280_temperature;BME280_humidity;BME280_pressure;Samples;Min_cycle;Max_cycle;Signal;HPM_P1;HPM_P2
2022/03/26 00:01:00;;;;;;;61.00;34.20;;;7.10;99.90;;;;;;4924209;29;20483;-79
2022/03/26 00:03:26;;;;;;;40.45;31.17;;;7.10;99.90;;;;;;4925108;29;20050;-79
2022/03/26 00:05:51;;;;;;;74.72;33.60;;;7.10;99.90;;;;;;4924853;29;20139;-79
2022/03/26 00:08:17;;;;;;;58.75;34.40;;;7.10;99.90;;;;;;4924808;29;20265;-80
2022/03/26 00:10:43;;;;;;;50.85;34.20;;;7.10;99.90;;;;;;4939859;29;20044;-80
2022/03/26 00:13:09;;;;;;;55.92;34.17;;;7.10;99.90;;;;;;4925225;29;20103;-79
2022/03/26 00:15:35;;;;;;;66.03;35.72;;;7.10;99.90;;;;;;4924572;29;20054;-79
2022/03/26 00:18:00;;;;;;;53.85;35.03;;;7.10;99.90;;;;;;4925356;29;20055;-79
2022/03/26 00:20:26;;;;;;;53.65;32.80;;;7.10;99.90;;;;;;4925039;29;20126;-79
2022/03/26 00:22:52;;;;;;;57.47;34.38;;;7.10;99.90;;;;;;4925118;29;20047;-79
2022/03/26 00:25:17;;;;;;;56.25;31.45;;;7.10;99.90;;;;;;4924164;29;20410;-79
2022/03/26 00:27:43;;;;;;;53.38;31.92;;;7.20;99.90;;;;;;4923616;29;20083;-79
2022/03/26 00:30:11;;;;;;;50.58;33.45;;;7.20;99.90;;;;;;4924064;29;20146;-79
2022/03/26 00:32:37;;;;;;;56.85;36.45;;;7.20;99.90;;;;;;4925074;29;20048;-79
2022/03/26 00:35:03;;;;;;;47.75;31.58;;;7.20;99.90;;;;;;4924990;29;20727;-79
2022/03/26 00:37:28;;;;;;;46.35;32.17;;;7.20;99.90;;;;;;4923473;29;20059;-79
2022/03/26 00:39:54;;;;;;;51.67;34.17;;;7.20;99.90;;;;;;4924042;29;20083;-79
2022/03/26 00:42:20;;;;;;;50.67;32.65;;;7.20;99.90;;;;;;4924677;29;20047;-79
2022/03/26 00:44:46;;;;;;;49.33;33.85;;;7.20;99.90;;;;;;4919645;29;20044;-79
2022/03/26 00:47:12;;;;;;;40.60;29.58;;;7.20;99.90;;;;;;4905601;29;20463;-79
2022/03/26 00:49:38;;;;;;;39.40;30.92;;;7.20;99.90;;;;;;4906592;29;20048;-79
2022/03/26 00:52:04;;;;;;;59.00;31.60;;;7.10;99.90;;;;;;4904970;29;20488;-79
2022/03/26 00:54:30;;;;;;;50.75;29.65;;;7.10;99.90;;;;;;4905726;29;20075;-79
2022/03/26 00:56:57;;;;;;;52.38;30.35;;;7.10;99.90;;;;;;4906048;29;20059;-79
2022/03/26 00:59:22;;;;;;;60.15;33.83;;;7.00;99.90;;;;;;4904891;29;20056;-79
2022/03/26 01:01:48;;;;;;;45.10;33.15;;;7.00;99.90;;;;;;4904404;29;20056;-79
2022/03/26 01:04:14;;;;;;;55.63;32.25;;;7.00;99.90;;;;;;4905652;29;20052;-79
2022/03/26 01:06:40;;;;;;;60.17;34.83;;;6.90;99.90;;;;;;4905934;29;20099;-79
2022/03/26 01:09:07;;;;;;;49.80;32.28;;;6.90;99.90;;;;;;4905985;29;20051;-79
2022/03/26 01:11:32;;;;;;;50.60;32.90;;;6.90;99.90;;;;;;4904210;29;20048;-79
2022/03/26 01:13:58;;;;;;;62.45;33.85;;;6.80;99.90;;;;;;4911249;29;20047;-79
2022/03/26 01:16:24;;;;;;;58.30;32.85;;;6.80;99.90;;;;;;4924839;29;20048;-79
2022/03/26 01:18:50;;;;;;;53.00;33.58;;;6.80;99.90;;;;;;4925058;29;20048;-79
2022/03/26 01:21:17;;;;;;;37.88;29.98;;;6.70;99.90;;;;;;4923459;29;20059;-79
2022/03/26 01:23:44;;;;;;;46.95;31.15;;;6.70;99.90;;;;;;4924759;29;20419;-80
2022/03/26 01:26:10;;;;;;;57.85;31.05;;;6.60;99.90;;;;;;4924239;29;20593;-79
2022/03/26 01:28:35;;;;;;;40.05;28.98;;;6.60;99.90;;;;;;4924563;29;20103;-79
2022/03/26 01:31:01;;;;;;;39.22;28.20;;;6.60;99.90;;;;;;4923820;29;20052;-79
2022/03/26 01:33:27;;;;;;;36.72;25.80;;;6.60;99.90;;;;;;4925243;29;20084;-79
2022/03/26 01:35:54;;;;;;;46.53;25.30;;;6.60;99.90;;;;;;4928272;29;20054;-79
2022/03/26 01:38:19;;;;;;;31.77;26.48;;;6.60;99.90;;;;;;4927656;29;20044;-79
2022/03/26 01:40:45;;;;;;;46.25;29.75;;;6.60;99.90;;;;;;4926442;29;20158;-79
2022/03/26 01:43:11;;;;;;;44.58;28.17;;;6.50;99.90;;;;;;4927284;29;20043;-79
2022/03/26 01:45:36;;;;;;;36.13;29.83;;;6.40;99.90;;;;;;4916626;29;20407;-79
2022/03/26 01:48:02;;;;;;;52.45;26.17;;;6.50;99.90;;;;;;4908982;29;20059;-79
2022/03/26 01:50:29;;;;;;;40.33;26.35;;;6.40;99.90;;;;;;4908702;29;20147;-79
2022/03/26 01:52:55;;;;;;;39.55;27.77;;;6.40;99.90;;;;;;4908248;29;20036;-79
2022/03/26 01:55:22;;;;;;;52.85;29.52;;;6.30;99.90;;;;;;4907006;29;20129;-79
2022/03/26 01:57:49;;;;;;;41.88;28.13;;;6.30;99.90;;;;;;4920139;29;20469;-79
2022/03/26 02:00:15;;;;;;;44.28;27.48;;;6.30;99.90;;;;;;4926385;29;20143;-79
2022/03/26 02:02:44;;;;;;;41.78;27.42;;;6.30;99.90;;;;;;4927307;29;20040;-80
2022/03/26 02:05:14;;;;;;;46.88;31.30;;;6.20;99.90;;;;;;4927013;29;20134;-79
2022/03/26 02:07:40;;;;;;;43.97;32.85;;;6.20;99.90;;;;;;4927646;29;20052;-79
2022/03/26 02:10:14;;;;;;;44.58;34.00;;;6.20;99.90;;;;;;4927591;29;20134;-79
2022/03/26 02:12:41;;;;;;;33.35;27.40;;;6.20;99.90;;;;;;4926163;29;20055;-79
2022/03/26 02:15:08;;;;;;;51.25;37.05;;;6.10;99.90;;;;;;4926879;29;20047;-79
2022/03/26 02:17:35;;;;;;;45.45;32.85;;;6.10;99.90;;;;;;4926251;29;20051;-78
2022/03/26 02:20:08;;;;;;;39.15;30.05;;;6.10;99.90;;;;;;4927411;29;20466;-79
2022/03/26 02:22:33;;;;;;;;;;;6.10;99.90;;;;;;4926349;29;20047;-79
2022/03/26 02:24:59;;;;;;;39.08;31.02;;;6.10;99.90;;;;;;4925739;29;20360;-79
2022/03/26 02:27:26;;;;;;;48.78;31.13;;;6.00;99.90;;;;;;4926884;29;20099;-79
2022/03/26 02:29:52;;;;;;;46.65;25.45;;;6.00;99.90;;;;;;4926112;29;20075;-79
2022/03/26 02:32:23;;;;;;;44.75;31.80;;;6.00;99.90;;;;;;4925653;29;20422;-79
2022/03/26 02:34:49;;;;;;;41.78;28.42;;;5.90;99.90;;;;;;4925752;29;20091;-79
2022/03/26 02:37:16;;;;;;;53.53;31.42;;;5.90;99.90;;;;;;4926511;29;20327;-79
2022/03/26 02:39:42;;;;;;;57.72;32.05;;;5.90;99.90;;;;;;4926971;29;20048;-79
2022/03/26 02:42:09;;;;;;;43.13;30.63;;;5.90;99.90;;;;;;4925898;29;20083;-79
2022/03/26 02:44:34;;;;;;;36.58;26.05;;;5.90;99.90;;;;;;4922297;29;20043;-79
2022/03/26 02:47:00;;;;;;;44.75;30.50;;;5.90;99.90;;;;;;4906844;29;20114;-79
2022/03/26 02:49:26;;;;;;;38.65;25.15;;;5.80;99.90;;;;;;4907387;29;20044;-79
2022/03/26 02:51:51;;;;;;;45.13;25.40;;;5.80;99.90;;;;;;4907525;29;20051;-79
2022/03/26 02:54:20;;;;;;;31.50;27.90;;;5.80;99.90;;;;;;4907167;29;20507;-79
2022/03/26 02:56:50;;;;;;;43.33;25.75;;;5.80;99.90;;;;;;4907482;29;20048;-79
2022/03/26 02:59:17;;;;;;;26.13;19.80;;;5.70;99.90;;;;;;4917226;29;20106;-78
2022/03/26 03:01:44;;;;;;;38.63;22.35;;;5.70;99.90;;;;;;4926474;29;20040;-79
2022/03/26 03:04:10;;;;;;;22.63;19.00;;;5.70;99.90;;;;;;4926205;29;20123;-79
2022/03/26 03:06:35;;;;;;;36.78;21.27;;;5.70;99.90;;;;;;4926472;29;20047;-79
2022/03/26 03:09:03;;;;;;;49.03;24.23;;;5.70;99.90;;;;;;4924878;29;20063;-79
2022/03/26 03:11:29;;;;;;;28.73;21.92;;;5.60;99.90;;;;;;4924732;29;20079;-79
2022/03/26 03:13:55;;;;;;;42.38;24.98;;;5.60;99.90;;;;;;4925290;29;20051;-79
2022/03/26 03:16:20;;;;;;;33.42;20.30;;;5.50;99.90;;;;;;4925637;29;20047;-79
2022/03/26 03:18:46;;;;;;;33.55;24.38;;;5.60;99.90;;;;;;4925740;29;20063;-80
2022/03/26 03:21:12;;;;;;;37.30;23.38;;;5.60;99.90;;;;;;4924771;29;20127;-80
2022/03/26 03:23:37;;;;;;;27.10;23.40;;;5.60;99.90;;;;;;4926394;29;20048;-81
2022/03/26 03:26:03;;;;;;;40.75;23.38;;;5.50;99.90;;;;;;4925967;29;20051;-80
2022/03/26 03:28:28;;;;;;;32.30;20.58;;;5.50;99.90;;;;;;4924822;29;20051;-80
2022/03/26 03:30:54;;;;;;;23.50;18.77;;;5.40;99.90;;;;;;4926191;29;20056;-80
2022/03/26 03:33:20;;;;;;;25.15;19.17;;;5.40;99.90;;;;;;4924432;29;20050;-80
2022/03/26 03:35:46;;;;;;;34.03;23.42;;;5.40;99.90;;;;;;4924255;29;20047;-80
2022/03/26 03:38:11;;;;;;;29.33;18.55;;;5.40;99.90;;;;;;4924365;29;20058;-80
2022/03/26 03:40:37;;;;;;;30.88;18.52;;;5.40;99.90;;;;;;4926249;29;20078;-80
2022/03/26 03:43:02;;;;;;;30.13;21.50;;;5.30;99.90;;;;;;4925352;29;20039;-80
2022/03/26 03:45:28;;;;;;;27.90;20.95;;;5.30;99.90;;;;;;4914872;29;20214;-80
2022/03/26 03:47:54;;;;;;;27.60;19.50;;;5.20;99.90;;;;;;4924169;29;20096;-81
2022/03/26 03:50:19;;;;;;;37.53;23.30;;;5.20;99.90;;;;;;4925533;29;20157;-80
2022/03/26 03:52:45;;;;;;;23.77;19.50;;;5.30;99.90;;;;;;4925722;29;20100;-80
2022/03/26 03:55:11;;;;;;;31.63;21.10;;;5.30;99.90;;;;;;4925062;29;20435;-80
2022/03/26 03:57:41;;;;;;;32.75;18.02;;;5.20;99.90;;;;;;4925362;29;20044;-80
2022/03/26 04:00:07;;;;;;;43.43;23.60;;;5.20;99.90;;;;;;4924077;29;20056;-80
2022/03/26 04:02:34;;;;;;;34.92;21.33;;;5.20;99.90;;;;;;4925080;29;20043;-79
2022/03/26 04:05:00;;;;;;;33.53;22.63;;;5.20;99.90;;;;;;4923873;29;20510;-80
2022/03/26 04:07:25;;;;;;;34.05;19.67;;;5.20;99.90;;;;;;4924955;29;20077;-80
2022/03/26 04:09:51;;;;;;;25.55;20.58;;;5.10;99.90;;;;;;4923430;29;20055;-80
2022/03/26 04:12:17;;;;;;;19.20;17.33;;;5.10;99.90;;;;;;4924930;29;20091;-79
2022/03/26 04:14:43;;;;;;;31.92;21.70;;;5.10;99.90;;;;;;4924049;29;20613;-80
2022/03/26 04:17:11;;;;;;;21.50;16.15;;;5.10;99.90;;;;;;4925059;29;20726;-80
2022/03/26 04:19:36;;;;;;;18.88;17.00;;;5.10;99.90;;;;;;4925523;29;20051;-80
2022/03/26 04:22:02;;;;;;;22.27;19.80;;;5.10;99.90;;;;;;4923878;29;20048;-80
2022/03/26 04:24:28;;;;;;;18.00;16.07;;;5.10;99.90;;;;;;4925252;29;20601;-79
2022/03/26 04:26:53;;;;;;;25.63;18.33;;;5.10;99.90;;;;;;4925407;29;20050;-79
2022/03/26 04:29:19;;;;;;;24.38;19.27;;;5.10;99.90;;;;;;4922286;29;20055;-80
2022/03/26 04:31:46;;;;;;;34.27;17.67;;;5.10;99.90;;;;;;4925134;29;20063;-80
2022/03/26 04:34:12;;;;;;;42.33;22.35;;;5.10;99.90;;;;;;4924518;29;20059;-80
2022/03/26 04:36:37;;;;;;;30.48;19.35;;;5.10;99.90;;;;;;4925699;29;20040;-80
2022/03/26 04:39:03;;;;;;;29.03;18.57;;;5.10;99.90;;;;;;4925138;29;20044;-80
2022/03/26 04:41:28;;;;;;;32.80;18.52;;;5.10;99.90;;;;;;4924660;29;20131;-80
2022/03/26 04:43:54;;;;;;;24.90;21.37;;;5.00;99.90;;;;;;4938972;28;20610;-80
2022/03/26 04:46:20;;;;;;;27.13;20.77;;;5.00;99.90;;;;;;4908302;29;20454;-80
2022/03/26 04:48:46;;;;;;;32.30;19.67;;;5.10;99.90;;;;;;4920078;29;20720;-79
2022/03/26 04:51:12;;;;;;;27.77;18.52;;;5.00;99.90;;;;;;4924668;29;20063;-79
2022/03/26 04:53:39;;;;;;;23.27;19.67;;;5.00;99.90;;;;;;4925268;29;20103;-80
2022/03/26 04:56:04;;;;;;;46.13;24.07;;;5.00;99.90;;;;;;4925707;29;20051;-79
2022/03/26 04:58:30;;;;;;;31.50;21.42;;;5.00;99.90;;;;;;4922622;29;20048;-80
2022/03/26 05:00:56;;;;;;;22.43;19.93;;;5.00;99.90;;;;;;4923358;29;20095;-80
2022/03/26 05:03:21;;;;;;;26.95;18.27;;;4.90;99.90;;;;;;4924339;29;20422;-80
2022/03/26 05:05:47;;;;;;;29.67;20.10;;;4.90;99.90;;;;;;4925043;29;20126;-80
2022/03/26 05:08:12;;;;;;;33.30;20.20;;;4.90;99.90;;;;;;4926806;29;20150;-80
2022/03/26 05:10:38;;;;;;;29.07;21.07;;;4.90;99.90;;;;;;4928743;29;20047;-79
2022/03/26 05:13:03;;;;;;;37.77;21.60;;;4.90;99.90;;;;;;4928214;29;20050;-80
2022/03/26 05:15:29;;;;;;;27.77;21.05;;;4.90;99.90;;;;;;4926442;29;20048;-79
2022/03/26 05:17:56;;;;;;;30.07;22.00;;;4.90;99.90;;;;;;4928468;29;20118;-80
2022/03/26 05:20:23;;;;;;;37.47;22.65;;;4.90;99.90;;;;;;4927921;29;20047;-80
2022/03/26 05:22:49;;;;;;;40.10;22.10;;;4.90;99.90;;;;;;4928172;29;20559;-80
2022/03/26 05:25:16;;;;;;;31.25;20.52;;;4.90;99.90;;;;;;4927747;29;20130;-80
2022/03/26 05:27:50;;;;;;;35.72;25.50;;;4.90;99.90;;;;;;4926510;29;20039;-80
2022/03/26 05:30:17;;;;;;;38.67;23.08;;;4.90;99.90;;;;;;4909670;29;20495;-79
2022/03/26 05:32:43;;;;;;;39.88;26.75;;;4.90;99.90;;;;;;4928112;29;20102;-80
2022/03/26 05:35:16;;;;;;;24.27;21.70;;;4.90;99.90;;;;;;4928004;29;20067;-78
2022/03/26 05:37:45;;;;;;;21.57;19.40;;;4.90;99.90;;;;;;4927665;29;20618;-80
2022/03/26 05:40:12;;;;;;;27.10;23.90;;;4.90;99.90;;;;;;4927209;29;20036;-80
2022/03/26 05:42:38;;;;;;;32.08;23.55;;;4.90;99.90;;;;;;4928409;29;20794;-80
2022/03/26 05:45:08;;;;;;;34.00;22.40;;;4.90;99.90;;;;;;4918919;29;20056;-79
2022/03/26 05:47:34;;;;;;;27.93;20.07;;;4.90;99.90;;;;;;4907996;29;20044;-79
2022/03/26 05:50:00;;;;;;;31.40;20.57;;;4.90;99.90;;;;;;4908808;29;20048;-79
2022/03/26 05:52:26;;;;;;;34.15;25.42;;;4.90;99.90;;;;;;4906983;29;20048;-79
2022/03/26 05:54:52;;;;;;;26.52;22.30;;;5.00;99.90;;;;;;4908919;29;20598;-80
2022/03/26 05:57:18;;;;;;;33.43;23.40;;;5.00;99.90;;;;;;4923158;29;20451;-79
2022/03/26 05:59:45;;;;;;;30.50;22.77;;;5.00;99.90;;;;;;4906750;29;20436;-79
2022/03/26 06:02:13;;;;;;;27.50;23.87;;;5.00;99.90;;;;;;4908669;29;20048;-80
2022/03/26 06:04:39;;;;;;;38.53;27.77;;;5.00;99.90;;;;;;4908320;29;20566;-79
2022/03/26 06:07:05;;;;;;;36.67;25.47;;;5.00;99.90;;;;;;4909263;29;20056;-79
2022/03/26 06:09:31;;;;;;;37.63;24.37;;;5.00;99.90;;;;;;4911907;29;20478;-80
2022/03/26 06:11:56;;;;;;;29.80;25.17;;;5.10;99.90;;;;;;4926916;29;20130;-80
2022/03/26 06:14:23;;;;;;;36.03;23.97;;;5.10;99.90;;;;;;4926282;29;20048;-79
2022/03/26 06:16:48;;;;;;;28.70;25.40;;;5.10;99.90;;;;;;4921991;29;20447;-80
2022/03/26 06:19:14;;;;;;;23.27;20.03;;;5.10;99.90;;;;;;4915746;29;20077;-80
2022/03/26 06:21:40;;;;;;;26.30;22.20;;;5.10;99.90;;;;;;4927043;29;20044;-80
2022/03/26 06:24:06;;;;;;;31.23;23.87;;;5.20;99.90;;;;;;4927683;29;20051;-80
2022/03/26 06:26:31;;;;;;;31.13;23.13;;;5.20;99.90;;;;;;4957728;28;20052;-79
2022/03/26 06:28:57;;;;;;;33.88;24.88;;;5.20;99.90;;;;;;4926260;28;20036;-80
2022/03/26 06:31:24;;;;;;;45.30;27.10;;;5.20;99.90;;;;;;4926181;29;20050;-79
2022/03/26 06:33:50;;;;;;;23.97;21.63;;;5.30;99.90;;;;;;4927066;29;20106;-80
2022/03/26 06:36:16;;;;;;;42.30;26.95;;;5.30;99.90;;;;;;4924579;29;20055;-80
2022/03/26 06:38:44;;;;;;;28.27;22.87;;;5.30;99.90;;;;;;4926208;29;20490;-80
2022/03/26 06:41:10;;;;;;;31.08;27.38;;;5.40;99.90;;;;;;4923119;29;20040;-80
2022/03/26 06:43:39;;;;;;;22.17;19.97;;;5.50;99.90;;;;;;4926101;29;20043;-80
2022/03/26 06:46:05;;;;;;;45.55;26.02;;;5.50;99.90;;;;;;4925329;29;20055;-81
2022/03/26 06:48:31;;;;;;;39.22;28.85;;;5.50;99.90;;;;;;4926140;29;20048;-79
2022/03/26 06:50:58;;;;;;;31.00;24.33;;;5.60;99.90;;;;;;4925515;29;20043;-79
2022/03/26 06:53:24;;;;;;;35.20;23.35;;;5.70;99.90;;;;;;4923415;29;20058;-78
2022/03/26 06:55:49;;;;;;;32.15;24.92;;;5.80;99.90;;;;;;4916906;29;20036;-85
2022/03/26 06:58:15;;;;;;;36.45;27.55;;;5.90;99.90;;;;;;4920497;29;20047;-85
2022/03/26 07:00:41;;;;;;;27.30;21.17;;;6.00;99.90;;;;;;4918242;29;20044;-84
2022/03/26 07:03:06;;;;;;;38.50;24.02;;;6.10;99.90;;;;;;4926702;29;20036;-84
2022/03/26 07:05:32;;;;;;;35.13;29.10;;;6.20;99.90;;;;;;4919988;29;20087;-84
2022/03/26 07:07:57;;;;;;;31.27;25.50;;;6.30;99.90;;;;;;4907584;29;20071;-83
2022/03/26 07:10:23;;;;;;;39.58;29.80;;;6.40;99.90;;;;;;4924371;29;20155;-84
2022/03/26 07:12:49;;;;;;;37.22;27.73;;;6.50;99.90;;;;;;4924548;29;20052;-84
2022/03/26 07:15:15;;;;;;;39.15;30.35;;;6.50;99.90;;;;;;4925738;29;20095;-84
2022/03/26 07:17:44;;;;;;;31.73;27.33;;;6.60;99.90;;;;;;4925544;29;20047;-85
2022/03/26 07:20:11;;;;;;;32.78;27.63;;;6.70;99.90;;;;;;4924825;29;20042;-83
2022/03/26 07:22:37;;;;;;;28.55;25.50;;;6.80;99.90;;;;;;4925880;29;20278;-85
2022/03/26 07:25:04;;;;;;;36.35;31.17;;;6.80;99.90;;;;;;4917270;29;20050;-82
2022/03/26 07:27:34;;;;;;;40.35;29.05;;;6.90;99.90;;;;;;4924995;29;20036;-83
2022/03/26 07:30:00;;;;;;;29.73;24.92;;;7.00;99.90;;;;;;4923917;29;20047;-83
2022/03/26 07:32:26;;;;;;;33.88;29.35;;;7.10;99.90;;;;;;4922125;29;20396;-85
2022/03/26 07:34:53;;;;;;;33.28;25.52;;;7.20;99.90;;;;;;4924936;29;20078;-85
2022/03/26 07:37:19;;;;;;;39.58;30.60;;;7.30;99.90;;;;;;4923598;29;20577;-85
2022/03/26 07:39:45;;;;;;;37.65;26.48;;;7.30;99.90;;;;;;4924852;29;20686;-85
2022/03/26 07:42:11;;;;;;;27.40;23.98;;;7.40;99.90;;;;;;4934580;29;20091;-86
2022/03/26 07:44:36;;;;;;;47.03;27.92;;;7.40;99.90;;;;;;4924594;29;20044;-84
2022/03/26 07:47:02;;;;;;;33.13;23.50;;;7.40;99.90;;;;;;4924000;29;20048;-85
2022/03/26 07:49:28;;;;;;;59.65;25.50;;;7.50;99.90;;;;;;4925237;29;21120;-85
2022/03/26 07:51:54;;;;;;;37.10;25.25;;;7.50;99.90;;;;;;4924934;29;20131;-85
2022/03/26 07:54:19;;;;;;;40.65;31.05;;;7.60;99.90;;;;;;4923332;29;20047;-85
2022/03/26 07:56:45;;;;;;;41.50;27.50;;;7.60;99.90;;;;;;4924938;29;20113;-84
2022/03/26 07:59:11;;;;;;;50.30;26.35;;;7.70;99.90;;;;;;4924500;29;20443;-84
2022/03/26 08:01:36;;;;;;;34.78;23.77;;;7.70;99.90;;;;;;4924726;29;20047;-84
2022/03/26 08:04:02;;;;;;;47.25;29.05;;;7.70;99.90;;;;;;4922899;29;20055;-83
2022/03/26 08:06:27;;;;;;;47.55;28.00;;;7.70;99.90;;;;;;4938789;28;20127;-83
2022/03/26 08:08:53;;;;;;;39.22;23.15;;;7.80;99.90;;;;;;4924888;29;20043;-84
2022/03/26 08:11:19;;;;;;;35.78;27.35;;;7.80;99.90;;;;;;4917378;29;20044;-84
2022/03/26 08:13:44;;;;;;;36.47;22.42;;;7.80;99.90;;;;;;4921038;29;20042;-84
2022/03/26 08:16:10;;;;;;;39.90;25.42;;;7.90;99.90;;;;;;4924870;29;20458;-84
2022/03/26 08:18:36;;;;;;;40.97;26.65;;;7.90;99.90;;;;;;4921912;29;20074;-83
2022/03/26 08:21:02;;;;;;;50.53;24.48;;;8.00;99.90;;;;;;4924808;29;20400;-84
2022/03/26 08:23:28;;;;;;;36.10;21.90;;;8.10;99.90;;;;;;4923996;29;20159;-84
2022/03/26 08:28:38;;;;;;;34.50;23.40;;;8.20;99.90;;;;;;4939096;29;20256;-84
2022/03/26 08:31:03;;;;;;;30.25;22.60;;;8.30;99.90;;;;;;4915980;29;20044;-85
2022/03/26 08:33:29;;;;;;;26.90;18.63;;;8.30;99.90;;;;;;4905785;29;20051;-84
2022/03/26 08:35:55;;;;;;;34.20;19.30;;;8.40;99.90;;;;;;4906041;29;20091;-85
2022/03/26 08:38:20;;;;;;;33.85;21.25;;;8.40;99.90;;;;;;4921590;29;20135;-87
2022/03/26 08:40:47;;;;;;;34.95;19.92;;;8.50;99.90;;;;;;4925835;29;20143;-86
2022/03/26 08:43:13;;;;;;;28.05;17.75;;;8.60;99.90;;;;;;4928353;29;20086;-87
2022/03/26 08:45:40;;;;;;;29.42;20.92;;;8.70;99.90;;;;;;4929262;29;20075;-84
2022/03/26 08:48:06;;;;;;;26.38;16.65;;;8.80;99.90;;;;;;4928785;29;20047;-91
2022/03/26 08:50:32;;;;;;;28.17;18.45;;;8.90;99.90;;;;;;4929146;29;20046;-93
2022/03/26 08:52:58;;;;;;;30.95;20.48;;;9.00;99.90;;;;;;4929106;29;20127;-84
2022/03/26 08:55:25;;;;;;;37.85;19.10;;;9.10;99.90;;;;;;4928379;29;20043;-82
2022/03/26 08:57:50;;;;;;;17.73;15.15;;;9.20;99.90;;;;;;4927693;29;20697;-87
2022/03/26 09:00:17;;;;;;;28.05;16.15;;;9.30;99.90;;;;;;4925270;29;20119;-87
2022/03/26 09:02:44;;;;;;;32.20;18.80;;;9.30;99.90;;;;;;4926069;29;20039;-87
2022/03/26 09:05:13;;;;;;;26.92;17.42;;;9.40;99.90;;;;;;4925212;29;20103;-87
2022/03/26 09:07:39;;;;;;;31.70;19.63;;;9.50;99.90;;;;;;4927879;29;20076;-87
2022/03/26 09:10:06;;;;;;;22.35;14.30;;;9.50;99.90;;;;;;4927793;29;20043;-89
2022/03/26 09:12:32;;;;;;;19.92;15.90;;;9.50;99.90;;;;;;4926887;29;20044;-88
2022/03/26 09:14:58;;;;;;;18.42;13.15;;;9.60;99.90;;;;;;4927237;29;20039;-89
2022/03/26 09:17:25;;;;;;;28.13;14.60;;;9.70;99.90;;;;;;4928052;29;20050;-88
2022/03/26 09:19:50;;;;;;;16.73;15.00;;;9.70;99.90;;;;;;4928039;29;20048;-88
2022/03/26 09:22:16;;;;;;;23.15;13.50;;;9.80;99.90;;;;;;4926602;29;20562;-87
2022/03/26 09:24:42;;;;;;;24.98;15.75;;;9.90;99.90;;;;;;4927645;29;20067;-88
2022/03/26 09:27:08;;;;;;;26.83;15.60;;;9.90;99.90;;;;;;4927460;29;20043;-88
2022/03/26 09:29:34;;;;;;;17.88;12.35;;;10.00;99.90;;;;;;4925903;29;20501;-89
2022/03/26 09:32:00;;;;;;;28.25;18.17;;;10.10;99.90;;;;;;4926678;29;20047;-87
2022/03/26 09:34:25;;;;;;;22.42;13.95;;;10.10;99.90;;;;;;4927059;29;20467;-86
2022/03/26 09:36:53;;;;;;;20.80;13.73;;;10.10;99.90;;;;;;4927518;29;20043;-88
2022/03/26 09:39:19;;;;;;;19.67;12.38;;;10.20;99.90;;;;;;4925743;29;20074;-88
2022/03/26 09:41:46;;;;;;;22.02;11.77;;;10.20;99.90;;;;;;4926133;29;20075;-88
2022/03/26 09:44:12;;;;;;;18.40;13.23;;;10.20;99.90;;;;;;4926235;29;20584;-89
2022/03/26 09:46:38;;;;;;;14.13;10.90;;;10.20;99.90;;;;;;4923206;29;20494;-88
2022/03/26 09:49:03;;;;;;;20.67;11.48;;;10.20;99.90;;;;;;4928320;29;20090;-88
2022/03/26 09:51:29;;;;;;;17.80;13.32;;;10.40;99.90;;;;;;4926985;29;20048;-87
2022/03/26 09:53:56;;;;;;;18.60;12.05;;;10.40;99.90;;;;;;4925315;29;20054;-88
2022/03/26 09:56:23;;;;;;;13.98;10.50;;;10.50;99.90;;;;;;4927480;29;20043;-88
2022/03/26 09:58:52;;;;;;;10.32;8.20;;;10.50;99.90;;;;;;4926250;29;20526;-89
2022/03/26 10:01:22;;;;;;;26.42;9.13;;;10.50;99.90;;;;;;4927151;29;20076;-88
2022/03/26 10:04:35;;;;;;;12.70;10.35;;;10.60;99.90;;;;;;4925268;29;20043;-89
2022/03/26 10:07:00;;;;;;;10.23;7.90;;;10.80;99.90;;;;;;4907762;29;20048;-88
2022/03/26 10:09:40;;;;;;;9.07;7.70;;;10.80;99.90;;;;;;4924366;29;20647;-89
2022/03/26 10:12:10;;;;;;;7.43;6.05;;;10.90;99.90;;;;;;4925385;29;20131;-88
2022/03/26 10:14:45;;;;;;;7.00;6.05;;;11.00;99.90;;;;;;4924823;29;20058;-87
2022/03/26 10:17:18;;;;;;;11.90;5.95;;;11.00;99.90;;;;;;4938628;29;20127;-87
2022/03/26 10:19:57;;;;;;;5.57;5.07;;;11.10;99.90;;;;;;4911445;29;20052;-89
2022/03/26 10:22:31;;;;;;;9.00;5.25;;;11.20;99.90;;;;;;4923445;29;20048;-88
2022/03/26 10:25:03;;;;;;;9.32;4.88;;;11.20;99.90;;;;;;4926208;29;20469;-88
2022/03/26 10:27:35;;;;;;;10.50;4.80;;;11.20;99.90;;;;;;4917063;29;20457;-84
2022/03/26 10:30:02;;;;;;;6.72;5.18;;;11.20;99.90;;;;;;4915799;29;20541;-86
2022/03/26 10:32:39;;;;;;;7.22;4.97;;;11.20;99.90;;;;;;4924578;29;20050;-89
2022/03/26 10:35:28;;;;;;;7.13;4.47;;;11.20;99.90;;;;;;4926861;29;20105;-87
2022/03/26 10:37:58;;;;;;;9.38;4.60;;;11.30;99.90;;;;;;4919831;29;20055;-86
2022/03/26 10:40:38;;;;;;;9.57;5.22;;;11.30;99.90;;;;;;4923795;29;20055;-91
2022/03/26 10:43:10;;;;;;;7.78;5.60;;;11.30;99.90;;;;;;4924358;29;20051;-87
2022/03/26 10:45:50;;;;;;;6.75;4.88;;;11.40;99.90;;;;;;4917207;29;20102;-86
2022/03/26 10:48:22;;;;;;;6.45;5.32;;;11.50;99.90;;;;;;4924989;29;20554;-86
2022/03/26 10:51:00;;;;;;;9.65;6.50;;;11.50;99.90;;;;;;4924471;29;20044;-86
2022/03/26 10:53:38;;;;;;;7.43;4.05;;;11.60;99.90;;;;;;4936905;29;20040;-87
2022/03/26 10:56:06;;;;;;;9.73;4.97;;;11.60;99.90;;;;;;4925402;29;20055;-85
2022/03/26 10:58:33;;;;;;;9.27;5.05;;;11.70;99.90;;;;;;4922931;29;20050;-87
2022/03/26 11:00:59;;;;;;;2.72;2.53;;;11.80;99.90;;;;;;4923584;29;20051;-89
2022/03/26 11:03:25;;;;;;;3.08;2.78;;;11.80;99.90;;;;;;4923069;29;20048;-89
2022/03/26 11:05:55;;;;;;;3.00;2.80;;;11.90;99.90;;;;;;4921325;29;20100;-86
2022/03/26 11:08:23;;;;;;;8.65;2.45;;;11.90;99.90;;;;;;4925550;29;20043;-86
2022/03/26 11:10:53;;;;;;;13.55;3.67;;;11.90;99.90;;;;;;4923908;29;20043;-86
2022/03/26 11:13:19;;;;;;;5.32;3.50;;;12.00;99.90;;;;;;4922854;29;20125;-86
2022/03/26 11:15:52;;;;;;;11.05;3.53;;;12.00;99.90;;;;;;4913839;29;20039;-86
2022/03/26 11:18:24;;;;;;;7.38;3.60;;;11.90;99.90;;;;;;4929899;29;20047;-87
2022/03/26 11:21:14;;;;;;;3.37;2.93;;;11.90;99.90;;;;;;4922397;29;20126;-88
2022/03/26 11:24:03;;;;;;;9.20;3.15;;;11.90;99.90;;;;;;4923833;29;20089;-89
2022/03/26 11:26:52;;;;;;;2.67;2.47;;;11.90;99.90;;;;;;5100250;27;20557;-89
2022/03/26 11:29:36;;;;;;;3.10;2.80;;;12.00;99.90;;;;;;5098339;28;20405;-87
2022/03/26 11:32:24;;;;;;;5.63;2.83;;;12.00;99.90;;;;;;5081737;28;20058;-87
2022/03/26 11:35:09;;;;;;;5.07;2.17;;;12.00;99.90;;;;;;5081006;28;20047;-87
2022/03/26 11:37:34;;;;;;;7.47;2.80;;;12.10;99.90;;;;;;5081011;28;20036;-88
2022/03/26 11:40:00;;;;;;;4.53;1.83;;;12.10;99.90;;;;;;5098202;28;20054;-88
2022/03/26 11:42:35;;;;;;;2.33;2.13;;;12.10;99.90;;;;;;5097683;28;20028;-88
2022/03/26 11:51:17;;;;;;;2.15;2.05;;;12.30;99.90;;;;;;5081166;28;20047;-86
2022/03/26 11:53:44;;;;;;;3.08;2.53;;;12.40;99.90;;;;;;5079896;28;20083;-88
2022/03/26 11:56:33;;;;;;;4.30;2.95;;;12.30;99.90;;;;;;5097355;28;20044;-85
2022/03/26 11:59:23;;;;;;;2.75;1.90;;;12.30;99.90;;;;;;5075984;28;20097;-85
2022/03/26 12:01:50;;;;;;;4.68;2.25;;;12.30;99.90;;;;;;5096384;28;20123;-86
2022/03/26 12:04:20;;;;;;;1.30;1.27;;;12.30;99.90;;;;;;5075868;28;20049;-85
2022/03/26 12:06:47;;;;;;;3.47;2.63;;;12.30;99.90;;;;;;5097287;28;20040;-85
2022/03/26 12:09:33;;;;;;;2.70;2.03;;;12.40;99.90;;;;;;5096758;28;20255;-84
2022/03/26 12:12:15;;;;;;;2.60;2.40;;;12.40;99.90;;;;;;5084977;28;20235;-86
2022/03/26 12:15:02;;;;;;;1.02;0.90;;;12.40;99.90;;;;;;5079884;28;20093;-87
2022/03/26 12:17:54;;;;;;;1.80;1.70;;;12.40;99.90;;;;;;5098424;28;20352;-89
2022/03/26 12:20:40;;;;;;;5.25;2.13;;;12.50;99.90;;;;;;5096445;28;20082;-85
2022/03/26 12:23:10;;;;;;;3.78;1.15;;;12.40;99.90;;;;;;5098085;28;20557;-84
2022/03/26 12:25:48;;;;;;;2.70;1.77;;;12.40;99.90;;;;;;5096987;28;20510;-85
2022/03/26 12:28:16;;;;;;;1.60;1.50;;;12.40;99.90;;;;;;5095178;28;20052;-85
2022/03/26 12:30:46;;;;;;;2.30;2.03;;;12.50;99.90;;;;;;5097982;28;20482;-80
2022/03/26 12:33:13;;;;;;;1.55;1.45;;;12.50;99.90;;;;;;5095333;28;20051;-94
2022/03/26 12:35:39;;;;;;;4.50;2.38;;;12.50;99.90;;;;;;5098133;28;20040;-77
2022/03/26 12:38:06;;;;;;;2.05;1.25;;;12.50;99.90;;;;;;5097314;28;20494;-84
2022/03/26 12:40:33;;;;;;;3.08;1.90;;;12.50;99.90;;;;;;5085757;28;20043;-85
2022/03/26 12:42:59;;;;;;;1.88;1.73;;;12.60;99.90;;;;;;5107944;28;20042;-94
2022/03/26 12:45:24;;;;;;;1.92;1.83;;;12.50;99.90;;;;;;5093511;28;20468;-89
2022/03/26 12:47:50;;;;;;;3.03;2.08;;;12.60;99.90;;;;;;5084022;28;20036;-90
2022/03/26 12:50:23;;;;;;;3.28;2.00;;;12.50;99.90;;;;;;5098985;28;20118;-88